Time;durP1;ratioP1;P1;durP2;ratioP2;P2;SDS_P1;SDS_P2;PMS_P1;PMS_P2;Temp;Humidity;BMP_temperature;BMP_pressure;BME280_temperature;BME280_humidity;BME280_pressure;Samples;Min_cycle;Max_cycle;Signal;HPM_P1;HPM_P2
2024/03/25 00:03:19;;;;;;;14.48;2.20;;;5.20;99.90;;;;;;20855772;23;20388;-48
2024/03/25 00:13:20;;;;;;;16.23;2.30;;;5.10;99.90;;;;;;20940823;23;20460;-48
2024/03/25 00:33:32;;;;;;;14.65;2.28;;;5.10;99.90;;;;;;20930730;23;20466;-48
2024/03/25 00:43:33;;;;;;;16.40;2.30;;;5.00;99.90;;;;;;20892449;23;20635;-48
2024/03/25 00:53:33;;;;;;;13.30;1.90;;;4.80;99.90;;;;;;20869183;23;20595;-48
2024/03/25 01:03:34;;;;;;;9.63;1.95;;;4.70;99.90;;;;;;20838529;23;20041;-49
2024/03/25 01:13:35;;;;;;;12.77;2.83;;;4.50;99.90;;;;;;20816099;23;20060;-48
2024/03/25 01:23:36;;;;;;;11.63;1.75;;;4.40;99.90;;;;;;20830800;23;20074;-48
2024/03/25 01:33:37;;;;;;;10.32;1.80;;;4.30;99.90;;;;;;20910867;23;20055;-49
2024/03/25 01:43:48;;;;;;;11.57;2.05;;;4.20;99.90;;;;;;20561772;23;20062;-80
2024/03/25 01:53:54;;;;;;;14.25;1.88;;;4.20;99.90;;;;;;20718072;23;20336;-48
2024/03/25 02:03:56;;;;;;;11.35;1.98;;;4.20;99.90;;;;;;20745259;23;20531;-49
2024/03/25 02:34:38;;;;;;;14.13;2.28;;;5.10;99.90;;;;;;20952863;23;20060;-49
2024/03/25 02:54:42;;;;;;;11.68;2.35;;;4.80;99.90;;;;;;20522934;23;20052;-49
2024/03/25 03:04:42;;;;;;;13.43;2.30;;;4.80;99.90;;;;;;20553458;23;20056;-48
2024/03/25 03:14:43;;;;;;;8.93;2.50;;;4.80;99.90;;;;;;20400070;23;20048;-49
2024/03/25 03:24:44;;;;;;;14.32;2.42;;;4.70;99.90;;;;;;20788564;23;20052;-48
2024/03/25 03:55:22;;;;;;;16.63;3.95;;;4.50;99.90;;;;;;20957744;23;20026;-48
2024/03/25 04:05:23;;;;;;;9.95;2.58;;;4.50;99.90;;;;;;20573408;23;20087;-48
2024/03/25 04:15:23;;;;;;;9.45;2.22;;;4.40;99.90;;;;;;20672219;23;20506;-49
2024/03/25 04:25:24;;;;;;;12.17;2.33;;;4.20;99.90;;;;;;20925236;23;20044;-49
2024/03/25 04:35:25;;;;;;;12.23;2.72;;;4.00;99.90;;;;;;20958362;23;20058;-49
2024/03/25 04:45:26;;;;;;;9.43;2.65;;;3.80;99.90;;;;;;20570089;23;20043;-48
2024/03/25 04:55:27;;;;;;;9.88;2.60;;;3.70;99.90;;;;;;20758658;23;20060;-80
2024/03/25 05:05:35;;;;;;;10.27;3.05;;;3.60;99.90;;;;;;20400858;29;20047;-80
2024/03/25 05:15:39;;;;;;;12.15;3.22;;;3.60;99.90;;;;;;20298089;29;20495;-80
2024/03/25 05:25:40;;;;;;;16.67;3.90;;;3.60;99.90;;;;;;20592702;23;20052;-47
2024/03/25 05:36:04;;;;;;;14.13;3.75;;;3.60;99.90;;;;;;15106132;23;20023;-47
2024/03/25 05:46:05;;;;;;;15.30;4.47;;;3.60;99.90;;;;;;20757429;23;20052;-48
2024/03/25 05:56:05;;;;;;;15.52;4.57;;;3.60;99.90;;;;;;20689822;23;20147;-48
2024/03/25 06:06:06;;;;;;;17.15;4.70;;;3.50;99.90;;;;;;20960264;23;20048;-48
2024/03/25 06:16:07;;;;;;;13.90;4.63;;;3.50;99.90;;;;;;20908324;23;20051;-48
2024/03/25 06:26:07;;;;;;;17.40;5.65;;;3.50;99.90;;;;;;20835748;23;20050;-48
2024/03/25 06:36:08;;;;;;;13.35;5.38;;;3.70;99.90;;;;;;20696619;23;20086;-48
2024/03/25 06:56:12;;;;;;;12.60;4.70;;;4.20;99.90;;;;;;20853534;23;20561;-49
2024/03/25 07:06:12;;;;;;;30.40;10.27;;;4.40;99.90;;;;;;20578399;23;20053;-48
2024/03/25 07:16:13;;;;;;;18.77;5.30;;;4.70;99.90;;;;;;20685816;23;20135;-49
2024/03/25 07:36:24;;;;;;;21.08;5.28;;;5.40;99.90;;;;;;20338764;29;20040;-79
2024/03/25 07:46:25;;;;;;;19.60;4.75;;;5.80;99.90;;;;;;20741603;23;20466;-49
2024/03/25 07:56:25;;;;;;;17.35;4.32;;;6.30;99.90;;;;;;21010323;23;20061;-48
2024/03/25 08:06:26;;;;;;;22.02;5.40;;;6.70;99.90;;;;;;20832696;23;20108;-47
2024/03/25 08:16:27;;;;;;;18.85;5.13;;;7.00;99.90;;;;;;20902790;23;20351;-48
2024/03/25 08:26:28;;;;;;;18.08;4.32;;;7.20;99.90;;;;;;20781033;23;20040;-51
2024/03/25 08:36:28;;;;;;;21.98;3.92;;;7.60;95.90;;;;;;21089111;23;20044;-49
2024/03/25 09:08:07;;;;;;;16.80;4.30;;;8.50;8.80;;;;;;20570401;23;20048;-86
2024/03/25 09:18:07;;;;;;;14.95;3.83;;;9.10;1.00;;;;;;20342619;23;20200;-90
2024/03/25 09:28:08;;;;;;;18.30;4.10;;;9.40;1.00;;;;;;20335325;29;20055;-88
2024/03/25 09:48:52;;;;;;;14.60;4.07;;;9.60;1.00;;;;;;20376806;23;20048;-88
2024/03/25 09:58:53;;;;;;;13.57;4.15;;;9.90;1.00;;;;;;20309572;29;20048;-88
2024/03/25 10:08:57;;;;;;;15.23;3.90;;;10.20;1.00;;;;;;20314653;29;20180;-89
2024/03/25 10:18:57;;;;;;;16.88;5.00;;;10.20;1.00;;;;;;20357476;29;20043;-86
2024/03/25 10:29:07;;;;;;;21.38;6.85;;;10.10;1.00;;;;;;20311113;29;20047;-88
2024/03/25 10:39:12;;;;;;;19.00;7.63;;;10.40;1.00;;;;;;20299414;29;20055;-88
2024/03/25 10:49:31;;;;;;;12.35;6.70;;;10.50;1.00;;;;;;20306333;29;20361;-87
2024/03/25 10:59:37;;;;;;;15.73;7.05;;;11.00;1.00;;;;;;20308917;29;20082;-83
2024/03/25 11:09:40;;;;;;;17.45;7.32;;;11.10;1.00;;;;;;20269177;29;20496;-86
2024/03/25 11:19:41;;;;;;;14.98;6.90;;;11.20;1.00;;;;;;20283444;29;20477;-87
2024/03/25 11:29:41;;;;;;;11.98;6.78;;;12.30;1.00;;;;;;20305080;29;20403;-84
2024/03/25 11:39:43;;;;;;;10.77;4.60;;;12.60;1.00;;;;;;20290083;29;20512;-85
2024/03/25 11:49:44;;;;;;;8.60;3.90;;;12.60;1.00;;;;;;20297177;29;20360;-86
2024/03/25 11:59:48;;;;;;;11.32;4.05;;;13.30;1.00;;;;;;20294204;29;20043;-83
2024/03/25 12:20:09;;;;;;;13.18;4.95;;;14.30;1.00;;;;;;20284005;29;21234;-85
2024/03/25 12:30:10;;;;;;;7.05;4.30;;;14.00;1.00;;;;;;20287501;29;20055;-85
2024/03/25 12:40:24;;;;;;;10.07;3.90;;;13.60;1.00;;;;;;20303093;29;20032;-83
2024/03/25 12:50:25;;;;;;;11.82;6.03;;;12.60;1.00;;;;;;20369750;28;20052;-87
2024/03/25 13:00:26;;;;;;;8.48;3.88;;;12.50;1.00;;;;;;20308267;29;20047;-88
2024/03/25 13:10:27;;;;;;;8.45;3.70;;;12.10;1.00;;;;;;20303174;29;20036;-88
2024/03/25 13:20:28;;;;;;;8.55;4.13;;;12.80;1.00;;;;;;20299264;29;20104;-83
2024/03/25 13:30:31;;;;;;;8.80;3.87;;;14.50;1.00;;;;;;20298680;29;20044;-84
2024/03/25 13:40:32;;;;;;;6.40;3.47;;;15.20;1.00;;;;;;20298837;29;20060;-86
2024/03/25 13:50:32;;;;;;;9.63;3.87;;;14.30;1.00;;;;;;20304511;29;20056;-86
2024/03/25 14:00:33;;;;;;;8.83;3.77;;;15.00;1.00;;;;;;20309105;29;20051;-80
2024/03/25 14:10:36;;;;;;;7.03;3.15;;;15.90;1.00;;;;;;20295676;29;20056;-84
2024/03/25 14:20:37;;;;;;;6.50;3.15;;;14.60;1.00;;;;;;20300339;29;20055;-82
2024/03/25 14:30:37;;;;;;;6.38;2.70;;;15.60;1.00;;;;;;20311475;29;20518;-82
2024/03/25 14:40:38;;;;;;;6.55;3.10;;;14.20;1.00;;;;;;20308082;29;20064;-81
2024/03/25 14:50:39;;;;;;;6.78;3.00;;;13.80;1.00;;;;;;20328431;28;20056;-85
2024/03/25 15:00:40;;;;;;;7.78;3.65;;;13.90;1.00;;;;;;20278768;29;20127;-84
2024/03/25 15:10:40;;;;;;;7.17;3.20;;;14.00;1.00;;;;;;20282124;29;20052;-84
2024/03/25 15:20:41;;;;;;;7.30;3.17;;;13.80;1.00;;;;;;20340072;29;20555;-84
2024/03/25 15:30:42;;;;;;;6.32;3.10;;;13.40;1.00;;;;;;20289320;29;20040;-84
2024/03/25 15:40:47;;;;;;;8.87;3.37;;;13.20;1.00;;;;;;20282134;29;20048;-84
2024/03/25 15:50:48;;;;;;;6.53;3.13;;;12.90;1.00;;;;;;20279979;29;20491;-88
2024/03/25 16:00:48;;;;;;;7.90;3.77;;;12.90;1.00;;;;;;20282697;29;20045;-88
2024/03/25 16:10:49;;;;;;;9.02;3.67;;;12.60;1.00;;;;;;20286942;29;20040;-88
2024/03/25 16:20:49;;;;;;;10.97;3.73;;;12.50;1.00;;;;;;20278157;29;20060;-83
2024/03/25 16:30:50;;;;;;;9.73;4.60;;;12.30;1.00;;;;;;20269909;29;20032;-85
2024/03/25 16:40:50;;;;;;;9.35;4.10;;;12.00;1.00;;;;;;20282456;29;20062;-89
2024/03/25 16:50:51;;;;;;;10.80;3.47;;;11.90;1.00;;;;;;20285833;29;20496;-88
2024/03/25 17:00:52;;;;;;;8.35;3.40;;;11.70;1.00;;;;;;20305953;29;20029;-85
2024/03/25 17:10:53;;;;;;;10.88;3.80;;;11.50;1.00;;;;;;20310351;28;20054;-84
2024/03/25 17:31:43;;;;;;;9.65;3.97;;;11.30;1.00;;;;;;20240868;29;20274;-88
2024/03/25 17:41:44;;;;;;;8.82;4.25;;;11.20;1.00;;;;;;20305564;29;20135;-86
2024/03/25 17:51:44;;;;;;;6.72;3.53;;;11.10;1.00;;;;;;20304535;29;20058;-87
2024/03/25 18:01:45;;;;;;;8.80;3.63;;;10.90;1.00;;;;;;20307071;29;20036;-85
2024/03/25 18:11:46;;;;;;;8.15;3.88;;;10.70;1.00;;;;;;20309031;29;20055;-82
2024/03/25 18:21:46;;;;;;;8.20;3.38;;;10.60;1.00;;;;;;20327514;29;20073;-86
2024/03/25 18:31:48;;;;;;;8.32;3.10;;;10.40;1.00;;;;;;20316683;29;20131;-86
2024/03/25 18:41:48;;;;;;;9.07;3.75;;;10.20;1.00;;;;;;20314132;29;20108;-88
2024/03/25 18:51:49;;;;;;;10.00;3.75;;;10.10;1.00;;;;;;20300596;29;20060;-89
2024/03/25 19:01:53;;;;;;;9.32;3.70;;;9.90;1.00;;;;;;20291299;29;20139;-88
2024/03/25 19:11:54;;;;;;;11.20;4.00;;;9.80;1.00;;;;;;20324297;29;20044;-86
2024/03/25 19:21:54;;;;;;;9.32;4.95;;;9.60;1.00;;;;;;20306725;29;20378;-87
2024/03/25 19:31:55;;;;;;;11.07;4.68;;;9.50;1.00;;;;;;20308231;29;20071;-87
2024/03/25 19:41:56;;;;;;;12.13;4.78;;;9.30;1.00;;;;;;20315179;29;20044;-89
2024/03/25 19:51:56;;;;;;;7.68;4.15;;;9.20;1.00;;;;;;20345611;28;20056;-83
2024/03/25 20:01:57;;;;;;;8.43;4.03;;;9.10;1.00;;;;;;20305949;29;20286;-88
2024/03/25 20:11:58;;;;;;;8.32;4.43;;;8.90;1.00;;;;;;20310855;29;20040;-88
2024/03/25 20:21:58;;;;;;;8.70;3.90;;;8.80;1.00;;;;;;20307446;29;20396;-87
2024/03/25 20:31:59;;;;;;;8.93;3.70;;;8.80;1.00;;;;;;20307486;29;20195;-89
2024/03/25 20:41:59;;;;;;;8.10;3.63;;;8.70;1.00;;;;;;20322899;29;20103;-80
2024/03/25 20:52:00;;;;;;;7.97;3.58;;;8.60;1.00;;;;;;20341516;29;20468;-86
2024/03/25 21:02:01;;;;;;;11.25;3.58;;;8.50;1.00;;;;;;20329326;29;20134;-85
2024/03/25 21:12:02;;;;;;;9.90;3.60;;;8.50;1.00;;;;;;20319146;29;20400;-85
2024/03/25 21:22:02;;;;;;;8.43;3.40;;;8.40;1.00;;;;;;20301449;29;20063;-81
2024/03/25 21:32:03;;;;;;;6.22;3.35;;;8.40;1.00;;;;;;20320714;29;20449;-86
2024/03/25 22:03:14;;;;;;;9.20;3.70;;;8.40;1.00;;;;;;20493740;23;20249;-84
2024/03/25 22:23:37;;;;;;;9.88;3.80;;;8.00;1.00;;;;;;20695792;23;20142;-79
2024/03/25 22:33:37;;;;;;;7.23;3.27;;;8.10;1.00;;;;;;20589776;23;20244;-49
2024/03/25 22:43:38;;;;;;;10.82;3.67;;;7.90;1.00;;;;;;20821409;23;20064;-50
2024/03/25 23:04:23;;;;;;;11.07;3.20;;;7.70;1.00;;;;;;20819141;23;20059;-50
2024/03/25 23:14:41;;;;;;;9.88;3.55;;;7.70;1.00;;;;;;20649453;23;20123;-81
2024/03/25 23:24:42;;;;;;;9.40;3.60;;;7.60;1.00;;;;;;20770199;23;20055;-48
2024/03/25 23:34:46;;;;;;;8.38;3.35;;;7.50;1.00;;;;;;20582432;23;20052;-79
2024/03/25 23:44:47;;;;;;;7.55;3.05;;;7.50;1.00;;;;;;20335202;23;20497;-49
